sensor_id;sensor_type;location;lat;lon;timestamp;temperature;humidity
790;DHT22;378;48.844;9.156;2022-07-10T00:00:41;17.10;99.90
790;DHT22;378;48.844;9.156;2022-07-10T00:03:09;17.10;99.90
790;DHT22;378;48.844;9.156;2022-07-10T00:05:36;17.10;99.90
790;DHT22;378;48.844;9.156;2022-07-10T00:08:03;17.10;99.90
790;DHT22;378;48.844;9.156;2022-07-10T00:10:30;17.10;99.90
790;DHT22;378;48.844;9.156;2022-07-10T00:13:00;17.00;99.90
790;DHT22;378;48.844;9.156;2022-07-10T00:15:27;17.00;99.90
790;DHT22;378;48.844;9.156;2022-07-10T00:17:57;17.10;99.90
790;DHT22;378;48.844;9.156;2022-07-10T00:20:24;17.10;99.90
790;DHT22;378;48.844;9.156;2022-07-10T00:22:52;17.00;99.90
790;DHT22;378;48.844;9.156;2022-07-10T00:25:19;17.00;99.90
790;DHT22;378;48.844;9.156;2022-07-10T00:27:46;17.00;99.90
790;DHT22;378;48.844;9.156;2022-07-10T00:30:14;17.00;99.90
790;DHT22;378;48.844;9.156;2022-07-10T00:32:41;17.00;99.90
790;DHT22;378;48.844;9.156;2022-07-10T00:35:08;17.00;99.90
790;DHT22;378;48.844;9.156;2022-07-10T00:37:36;17.10;99.90
790;DHT22;378;48.844;9.156;2022-07-10T00:40:04;17.10;99.90
790;DHT22;378;48.844;9.156;2022-07-10T00:42:31;17.20;99.90
790;DHT22;378;48.844;9.156;2022-07-10T00:44:59;17.20;99.90
790;DHT22;378;48.844;9.156;2022-07-10T00:47:27;17.20;99.90
790;DHT22;378;48.844;9.156;2022-07-10T00:49:54;17.20;99.90
790;DHT22;378;48.844;9.156;2022-07-10T00:52:22;17.20;99.90
790;DHT22;378;48.844;9.156;2022-07-10T00:54:50;17.20;99.90
790;DHT22;378;48.844;9.156;2022-07-10T00:57:18;17.10;99.90
790;DHT22;378;48.844;9.156;2022-07-10T00:59:45;17.20;99.90
790;DHT22;378;48.844;9.156;2022-07-10T01:02:13;17.10;99.90
790;DHT22;378;48.844;9.156;2022-07-10T01:04:42;17.10;99.90
790;DHT22;378;48.844;9.156;2022-07-10T01:07:09;16.90;99.90
790;DHT22;378;48.844;9.156;2022-07-10T01:09:37;16.90;99.90
790;DHT22;378;48.844;9.156;2022-07-10T01:12:05;16.80;99.90
790;DHT22;378;48.844;9.156;2022-07-10T01:14:33;16.70;99.90
790;DHT22;378;48.844;9.156;2022-07-10T01:17:05;16.60;99.90
790;DHT22;378;48.844;9.156;2022-07-10T01:19:32;16.60;99.90
790;DHT22;378;48.844;9.156;2022-07-10T01:22:01;16.60;99.90
790;DHT22;378;48.844;9.156;2022-07-10T01:24:28;16.60;99.90
790;DHT22;378;48.844;9.156;2022-07-10T01:26:56;16.60;99.90
790;DHT22;378;48.844;9.156;2022-07-10T01:29:23;16.60;99.90
790;DHT22;378;48.844;9.156;2022-07-10T01:31:50;16.60;99.90
790;DHT22;378;48.844;9.156;2022-07-10T01:34:17;16.60;99.90
790;DHT22;378;48.844;9.156;2022-07-10T01:36:44;16.60;99.90
790;DHT22;378;48.844;9.156;2022-07-10T01:39:13;16.50;99.90
790;DHT22;378;48.844;9.156;2022-07-10T01:41:40;16.50;99.90
790;DHT22;378;48.844;9.156;2022-07-10T01:44:07;16.50;99.90
790;DHT22;378;48.844;9.156;2022-07-10T01:46:35;16.50;99.90
790;DHT22;378;48.844;9.156;2022-07-10T01:49:02;16.40;99.90
790;DHT22;378;48.844;9.156;2022-07-10T01:51:29;16.30;99.90
790;DHT22;378;48.844;9.156;2022-07-10T01:53:56;16.20;99.90
790;DHT22;378;48.844;9.156;2022-07-10T01:56:24;16.10;99.90
790;DHT22;378;48.844;9.156;2022-07-10T01:58:51;16.10;99.90
790;DHT22;378;48.844;9.156;2022-07-10T02:01:19;16.10;99.90
790;DHT22;378;48.844;9.156;2022-07-10T02:03:46;16.10;99.90
790;DHT22;378;48.844;9.156;2022-07-10T02:06:30;16.00;99.90
790;DHT22;378;48.844;9.156;2022-07-10T02:08:57;16.00;99.90
790;DHT22;378;48.844;9.156;2022-07-10T02:11:26;16.00;99.90
790;DHT22;378;48.844;9.156;2022-07-10T02:13:53;16.00;99.90
790;DHT22;378;48.844;9.156;2022-07-10T02:16:20;15.90;99.90
790;DHT22;378;48.844;9.156;2022-07-10T02:18:47;15.90;99.90
790;DHT22;378;48.844;9.156;2022-07-10T02:21:14;15.90;99.90
790;DHT22;378;48.844;9.156;2022-07-10T02:23:41;15.90;99.90
790;DHT22;378;48.844;9.156;2022-07-10T02:26:08;15.90;99.90
790;DHT22;378;48.844;9.156;2022-07-10T02:28:36;16.00;99.90
790;DHT22;378;48.844;9.156;2022-07-10T02:31:04;16.00;99.90
790;DHT22;378;48.844;9.156;2022-07-10T02:33:31;16.10;99.90
790;DHT22;378;48.844;9.156;2022-07-10T02:35:58;16.00;99.90
790;DHT22;378;48.844;9.156;2022-07-10T02:38:25;16.10;99.90
790;DHT22;378;48.844;9.156;2022-07-10T02:40:52;16.10;99.90
790;DHT22;378;48.844;9.156;2022-07-10T02:43:19;16.10;99.90
790;DHT22;378;48.844;9.156;2022-07-10T02:45:48;16.00;99.90
790;DHT22;378;48.844;9.156;2022-07-10T02:48:15;15.90;99.90
790;DHT22;378;48.844;9.156;2022-07-10T02:50:43;15.80;99.90
790;DHT22;378;48.844;9.156;2022-07-10T02:53:11;15.80;99.90
790;DHT22;378;48.844;9.156;2022-07-10T02:55:38;15.70;99.90
790;DHT22;378;48.844;9.156;2022-07-10T02:58:05;15.60;99.90
790;DHT22;378;48.844;9.156;2022-07-10T03:00:32;15.60;99.90
790;DHT22;378;48.844;9.156;2022-07-10T03:03:01;15.50;99.90
790;DHT22;378;48.844;9.156;2022-07-10T03:05:28;15.50;99.90
790;DHT22;378;48.844;9.156;2022-07-10T03:07:55;15.40;99.90
790;DHT22;378;48.844;9.156;2022-07-10T03:10:22;15.40;99.90
790;DHT22;378;48.844;9.156;2022-07-10T03:12:49;15.40;99.90
790;DHT22;378;48.844;9.156;2022-07-10T03:15:16;15.30;99.90
790;DHT22;378;48.844;9.156;2022-07-10T03:17:43;15.30;99.90
790;DHT22;378;48.844;9.156;2022-07-10T03:20:12;15.20;99.90
790;DHT22;378;48.844;9.156;2022-07-10T03:22:39;15.20;99.90
790;DHT22;378;48.844;9.156;2022-07-10T03:25:06;15.20;99.90
790;DHT22;378;48.844;9.156;2022-07-10T03:27:33;15.20;99.90
790;DHT22;378;48.844;9.156;2022-07-10T03:30:00;15.20;99.90
790;DHT22;378;48.844;9.156;2022-07-10T03:32:27;15.20;99.90
790;DHT22;378;48.844;9.156;2022-07-10T03:34:54;15.20;99.90
790;DHT22;378;48.844;9.156;2022-07-10T03:37:22;15.20;99.90
790;DHT22;378;48.844;9.156;2022-07-10T03:39:49;15.20;99.90
790;DHT22;378;48.844;9.156;2022-07-10T03:42:16;15.20;99.90
790;DHT22;378;48.844;9.156;2022-07-10T03:44:43;15.20;99.90
790;DHT22;378;48.844;9.156;2022-07-10T03:47:10;15.30;99.90
790;DHT22;378;48.844;9.156;2022-07-10T03:49:37;15.30;99.90
790;DHT22;378;48.844;9.156;2022-07-10T03:52:05;15.40;99.90
790;DHT22;378;48.844;9.156;2022-07-10T03:54:34;15.40;99.90
790;DHT22;378;48.844;9.156;2022-07-10T03:57:01;15.50;99.90
790;DHT22;378;48.844;9.156;2022-07-10T03:59:45;15.60;99.90
790;DHT22;378;48.844;9.156;2022-07-10T04:02:12;15.60;99.90
790;DHT22;378;48.844;9.156;2022-07-10T04:04:39;15.70;99.90
790;DHT22;378;48.844;9.156;2022-07-10T04:07:06;15.80;99.90
790;DHT22;378;48.844;9.156;2022-07-10T04:09:34;15.80;99.90
790;DHT22;378;48.844;9.156;2022-07-10T04:12:01;15.90;99.90
790;DHT22;378;48.844;9.156;2022-07-10T04:14:28;15.90;99.90
790;DHT22;378;48.844;9.156;2022-07-10T04:16:55;15.90;99.90
790;DHT22;378;48.844;9.156;2022-07-10T04:19:22;16.00;99.90
790;DHT22;378;48.844;9.156;2022-07-10T04:21:49;16.00;99.90
790;DHT22;378;48.844;9.156;2022-07-10T04:24:16;16.10;99.90
790;DHT22;378;48.844;9.156;2022-07-10T04:26:44;16.10;99.90
790;DHT22;378;48.844;9.156;2022-07-10T04:29:11;16.10;99.90
790;DHT22;378;48.844;9.156;2022-07-10T04:31:38;16.00;99.90
790;DHT22;378;48.844;9.156;2022-07-10T04:34:05;16.00;99.90
790;DHT22;378;48.844;9.156;2022-07-10T04:36:32;16.00;99.90
790;DHT22;378;48.844;9.156;2022-07-10T04:38:59;16.00;99.90
790;DHT22;378;48.844;9.156;2022-07-10T04:41:26;16.00;99.90
790;DHT22;378;48.844;9.156;2022-07-10T04:43:54;15.90;99.90
790;DHT22;378;48.844;9.156;2022-07-10T04:46:21;15.90;99.90
790;DHT22;378;48.844;9.156;2022-07-10T04:48:48;15.90;99.90
790;DHT22;378;48.844;9.156;2022-07-10T04:51:16;15.90;99.90
790;DHT22;378;48.844;9.156;2022-07-10T04:53:43;16.00;99.90
790;DHT22;378;48.844;9.156;2022-07-10T04:56:10;16.10;99.90
790;DHT22;378;48.844;9.156;2022-07-10T04:58:37;16.40;99.90
790;DHT22;378;48.844;9.156;2022-07-10T05:01:05;17.20;99.90
790;DHT22;378;48.844;9.156;2022-07-10T05:03:32;18.00;99.90
790;DHT22;378;48.844;9.156;2022-07-10T05:05:59;18.40;99.90
790;DHT22;378;48.844;9.156;2022-07-10T05:08:26;18.30;99.90
790;DHT22;378;48.844;9.156;2022-07-10T05:10:53;18.10;99.90
790;DHT22;378;48.844;9.156;2022-07-10T05:13:20;18.20;99.90
790;DHT22;378;48.844;9.156;2022-07-10T05:15:47;18.10;99.90
790;DHT22;378;48.844;9.156;2022-07-10T05:18:16;18.30;99.90
790;DHT22;378;48.844;9.156;2022-07-10T05:20:43;18.60;99.90
790;DHT22;378;48.844;9.156;2022-07-10T05:23:13;18.60;99.90
790;DHT22;378;48.844;9.156;2022-07-10T05:25:40;19.10;99.90
790;DHT22;378;48.844;9.156;2022-07-10T05:28:07;19.10;99.90
790;DHT22;378;48.844;9.156;2022-07-10T05:30:34;19.70;99.90
790;DHT22;378;48.844;9.156;2022-07-10T05:33:02;19.60;99.90
790;DHT22;378;48.844;9.156;2022-07-10T05:35:30;20.10;99.90
790;DHT22;378;48.844;9.156;2022-07-10T05:37:57;20.60;99.90
790;DHT22;378;48.844;9.156;2022-07-10T05:40:25;21.00;99.90
790;DHT22;378;48.844;9.156;2022-07-10T05:42:53;21.40;99.90
790;DHT22;378;48.844;9.156;2022-07-10T05:45:19;21.40;99.90
790;DHT22;378;48.844;9.156;2022-07-10T05:47:46;21.70;99.90
790;DHT22;378;48.844;9.156;2022-07-10T05:50:13;22.10;99.90
790;DHT22;378;48.844;9.156;2022-07-10T05:52:41;22.80;99.90
790;DHT22;378;48.844;9.156;2022-07-10T05:55:09;23.00;99.90
790;DHT22;378;48.844;9.156;2022-07-10T05:57:36;23.30;99.90
790;DHT22;378;48.844;9.156;2022-07-10T06:00:04;23.60;99.90
790;DHT22;378;48.844;9.156;2022-07-10T06:02:32;23.90;99.90
790;DHT22;378;48.844;9.156;2022-07-10T06:04:59;24.10;99.90
790;DHT22;378;48.844;9.156;2022-07-10T06:07:26;24.00;99.90
790;DHT22;378;48.844;9.156;2022-07-10T06:09:54;23.50;99.90
790;DHT22;378;48.844;9.156;2022-07-10T06:12:21;22.90;99.90
790;DHT22;378;48.844;9.156;2022-07-10T06:14:48;22.20;99.90
790;DHT22;378;48.844;9.156;2022-07-10T06:17:15;21.60;99.90
790;DHT22;378;48.844;9.156;2022-07-10T06:19:42;21.00;99.90
790;DHT22;378;48.844;9.156;2022-07-10T06:22:09;20.50;99.90
790;DHT22;378;48.844;9.156;2022-07-10T06:24:55;20.20;99.90
790;DHT22;378;48.844;9.156;2022-07-10T06:27:21;19.90;99.90
790;DHT22;378;48.844;9.156;2022-07-10T06:29:48;19.80;99.90
790;DHT22;378;48.844;9.156;2022-07-10T06:32:15;19.70;99.90
790;DHT22;378;48.844;9.156;2022-07-10T06:34:42;20.10;99.90
790;DHT22;378;48.844;9.156;2022-07-10T06:37:09;20.20;99.90
790;DHT22;378;48.844;9.156;2022-07-10T06:39:36;20.20;99.90
790;DHT22;378;48.844;9.156;2022-07-10T06:42:05;19.90;99.90
790;DHT22;378;48.844;9.156;2022-07-10T06:44:32;19.50;99.90
790;DHT22;378;48.844;9.156;2022-07-10T06:46:59;19.40;99.90
790;DHT22;378;48.844;9.156;2022-07-10T06:49:44;19.40;99.90
790;DHT22;378;48.844;9.156;2022-07-10T06:52:11;19.40;99.90
790;DHT22;378;48.844;9.156;2022-07-10T06:54:38;19.50;99.90
790;DHT22;378;48.844;9.156;2022-07-10T06:57:07;19.30;99.90
790;DHT22;378;48.844;9.156;2022-07-10T06:59:34;19.00;99.90
790;DHT22;378;48.844;9.156;2022-07-10T07:02:00;18.90;99.90
790;DHT22;378;48.844;9.156;2022-07-10T07:04:27;18.80;99.90
790;DHT22;378;48.844;9.156;2022-07-10T07:06:54;18.70;99.90
790;DHT22;378;48.844;9.156;2022-07-10T07:09:21;18.70;99.90
790;DHT22;378;48.844;9.156;2022-07-10T07:11:48;18.50;99.90
790;DHT22;378;48.844;9.156;2022-07-10T07:14:16;18.50;99.90
790;DHT22;378;48.844;9.156;2022-07-10T07:16:43;18.60;99.90
790;DHT22;378;48.844;9.156;2022-07-10T07:19:12;18.60;99.90
790;DHT22;378;48.844;9.156;2022-07-10T07:21:43;18.60;99.90
790;DHT22;378;48.844;9.156;2022-07-10T07:24:28;18.60;99.90
790;DHT22;378;48.844;9.156;2022-07-10T07:26:55;18.70;99.90
790;DHT22;378;48.844;9.156;2022-07-10T07:29:23;18.90;99.90
790;DHT22;378;48.844;9.156;2022-07-10T07:31:50;18.80;99.90
790;DHT22;378;48.844;9.156;2022-07-10T07:34:19;18.80;99.90
790;DHT22;378;48.844;9.156;2022-07-10T07:36:46;18.80;99.90
790;DHT22;378;48.844;9.156;2022-07-10T07:39:13;18.80;99.90
790;DHT22;378;48.844;9.156;2022-07-10T07:41:40;19.00;99.90
790;DHT22;378;48.844;9.156;2022-07-10T07:44:07;19.10;99.90
790;DHT22;378;48.844;9.156;2022-07-10T07:46:39;19.10;99.90
790;DHT22;378;48.844;9.156;2022-07-10T07:49:08;19.20;99.90
790;DHT22;378;48.844;9.156;2022-07-10T07:51:34;19.30;99.90
790;DHT22;378;48.844;9.156;2022-07-10T07:54:01;19.50;99.90
790;DHT22;378;48.844;9.156;2022-07-10T07:56:28;19.60;99.90
790;DHT22;378;48.844;9.156;2022-07-10T07:58:55;19.70;99.90
790;DHT22;378;48.844;9.156;2022-07-10T08:01:22;19.80;99.90
790;DHT22;378;48.844;9.156;2022-07-10T08:03:50;20.00;99.90
790;DHT22;378;48.844;9.156;2022-07-10T08:06:18;20.40;99.90
790;DHT22;378;48.844;9.156;2022-07-10T08:08:45;20.70;99.90
790;DHT22;378;48.844;9.156;2022-07-10T08:11:12;21.20;99.90
790;DHT22;378;48.844;9.156;2022-07-10T08:13:39;21.30;99.90
790;DHT22;378;48.844;9.156;2022-07-10T08:16:06;21.40;99.90
790;DHT22;378;48.844;9.156;2022-07-10T08:18:33;21.70;99.90
790;DHT22;378;48.844;9.156;2022-07-10T08:21:01;21.50;99.90
790;DHT22;378;48.844;9.156;2022-07-10T08:23:28;21.90;99.90
790;DHT22;378;48.844;9.156;2022-07-10T08:25:55;22.70;99.90
790;DHT22;378;48.844;9.156;2022-07-10T08:28:22;23.20;99.90
790;DHT22;378;48.844;9.156;2022-07-10T08:30:52;23.60;99.90
790;DHT22;378;48.844;9.156;2022-07-10T08:33:19;23.80;99.90
790;DHT22;378;48.844;9.156;2022-07-10T08:35:46;23.80;99.90
790;DHT22;378;48.844;9.156;2022-07-10T08:38:14;23.70;99.90
790;DHT22;378;48.844;9.156;2022-07-10T08:40:41;23.80;99.90
790;DHT22;378;48.844;9.156;2022-07-10T08:43:09;23.60;99.90
790;DHT22;378;48.844;9.156;2022-07-10T08:45:36;23.10;99.90
790;DHT22;378;48.844;9.156;2022-07-10T08:48:04;22.60;99.90
790;DHT22;378;48.844;9.156;2022-07-10T08:50:36;22.20;99.90
790;DHT22;378;48.844;9.156;2022-07-10T08:53:07;21.90;99.90
790;DHT22;378;48.844;9.156;2022-07-10T08:55:36;22.00;99.90
790;DHT22;378;48.844;9.156;2022-07-10T08:58:04;22.00;99.90
790;DHT22;378;48.844;9.156;2022-07-10T09:00:31;22.10;99.90
790;DHT22;378;48.844;9.156;2022-07-10T09:03:01;22.00;99.90
790;DHT22;378;48.844;9.156;2022-07-10T09:05:27;22.10;99.90
790;DHT22;378;48.844;9.156;2022-07-10T09:07:55;22.30;99.90
790;DHT22;378;48.844;9.156;2022-07-10T09:10:25;22.70;99.90
790;DHT22;378;48.844;9.156;2022-07-10T09:12:55;23.20;99.90
790;DHT22;378;48.844;9.156;2022-07-10T09:15:24;23.40;99.90
790;DHT22;378;48.844;9.156;2022-07-10T09:17:55;23.40;99.90
790;DHT22;378;48.844;9.156;2022-07-10T09:20:27;23.30;99.90
790;DHT22;378;48.844;9.156;2022-07-10T09:22:56;23.40;99.90
790;DHT22;378;48.844;9.156;2022-07-10T09:25:30;23.50;99.90
790;DHT22;378;48.844;9.156;2022-07-10T09:37:39;23.80;99.90
790;DHT22;378;48.844;9.156;2022-07-10T09:40:07;23.50;99.90
790;DHT22;378;48.844;9.156;2022-07-10T09:42:37;23.50;99.90
790;DHT22;378;48.844;9.156;2022-07-10T09:45:14;23.80;99.90
790;DHT22;378;48.844;9.156;2022-07-10T09:47:43;24.20;99.90
790;DHT22;378;48.844;9.156;2022-07-10T09:50:22;24.50;99.90
790;DHT22;378;48.844;9.156;2022-07-10T09:52:52;25.10;99.90
790;DHT22;378;48.844;9.156;2022-07-10T09:55:21;25.20;99.90
790;DHT22;378;48.844;9.156;2022-07-10T09:57:59;24.80;99.90
790;DHT22;378;48.844;9.156;2022-07-10T10:00:27;24.70;99.90
790;DHT22;378;48.844;9.156;2022-07-10T10:02:56;24.50;99.90
790;DHT22;378;48.844;9.156;2022-07-10T10:05:31;24.50;99.90
790;DHT22;378;48.844;9.156;2022-07-10T10:08:06;24.60;99.90
790;DHT22;378;48.844;9.156;2022-07-10T10:10:36;24.80;99.90
790;DHT22;378;48.844;9.156;2022-07-10T10:13:07;24.70;99.90
790;DHT22;378;48.844;9.156;2022-07-10T10:15:36;24.50;99.90
790;DHT22;378;48.844;9.156;2022-07-10T10:18:04;24.70;99.90
790;DHT22;378;48.844;9.156;2022-07-10T10:20:32;25.00;99.90
790;DHT22;378;48.844;9.156;2022-07-10T10:23:10;25.80;99.90
790;DHT22;378;48.844;9.156;2022-07-10T10:25:38;25.90;99.20
790;DHT22;378;48.844;9.156;2022-07-10T10:28:08;25.70;99.40
790;DHT22;378;48.844;9.156;2022-07-10T10:30:38;24.80;99.90
790;DHT22;378;48.844;9.156;2022-07-10T10:36:08;23.90;99.90
790;DHT22;378;48.844;9.156;2022-07-10T10:39:03;23.80;99.90
790;DHT22;378;48.844;9.156;2022-07-10T10:41:38;24.30;99.90
790;DHT22;378;48.844;9.156;2022-07-10T10:44:20;24.30;99.90
790;DHT22;378;48.844;9.156;2022-07-10T10:47:05;24.00;99.90
790;DHT22;378;48.844;9.156;2022-07-10T10:49:52;23.90;99.90
790;DHT22;378;48.844;9.156;2022-07-10T10:52:20;23.20;99.90
790;DHT22;378;48.844;9.156;2022-07-10T10:55:04;22.80;99.90
790;DHT22;378;48.844;9.156;2022-07-10T10:57:36;22.50;99.90
790;DHT22;378;48.844;9.156;2022-07-10T11:00:07;22.50;99.90
790;DHT22;378;48.844;9.156;2022-07-10T11:02:36;23.40;99.90
790;DHT22;378;48.844;9.156;2022-07-10T11:05:38;24.40;99.90
790;DHT22;378;48.844;9.156;2022-07-10T11:08:08;25.10;99.90
790;DHT22;378;48.844;9.156;2022-07-10T11:10:38;24.90;99.90
790;DHT22;378;48.844;9.156;2022-07-10T11:13:06;24.60;99.90
790;DHT22;378;48.844;9.156;2022-07-10T11:15:34;24.20;99.90
790;DHT22;378;48.844;9.156;2022-07-10T11:18:06;23.90;99.90
790;DHT22;378;48.844;9.156;2022-07-10T11:20:35;25.00;99.90
790;DHT22;378;48.844;9.156;2022-07-10T11:23:17;25.70;99.00
790;DHT22;378;48.844;9.156;2022-07-10T11:25:49;26.60;98.10
790;DHT22;378;48.844;9.156;2022-07-10T11:28:37;26.90;97.20
790;DHT22;378;48.844;9.156;2022-07-10T11:31:05;27.70;96.30
790;DHT22;378;48.844;9.156;2022-07-10T11:33:39;28.70;95.40
790;DHT22;378;48.844;9.156;2022-07-10T11:36:10;29.20;94.40
790;DHT22;378;48.844;9.156;2022-07-10T11:38:39;30.00;93.20
790;DHT22;378;48.844;9.156;2022-07-10T11:41:14;30.20;92.10
790;DHT22;378;48.844;9.156;2022-07-10T11:43:51;29.80;91.10
790;DHT22;378;48.844;9.156;2022-07-10T11:46:19;30.40;90.40
790;DHT22;378;48.844;9.156;2022-07-10T11:48:48;31.00;90.30
790;DHT22;378;48.844;9.156;2022-07-10T11:51:17;31.90;89.00
790;DHT22;378;48.844;9.156;2022-07-10T11:53:53;31.90;85.80
790;DHT22;378;48.844;9.156;2022-07-10T11:56:22;31.60;83.60
790;DHT22;378;48.844;9.156;2022-07-10T11:58:57;31.60;80.80
790;DHT22;378;48.844;9.156;2022-07-10T12:01:25;31.40;81.00
790;DHT22;378;48.844;9.156;2022-07-10T12:03:57;31.20;82.90
790;DHT22;378;48.844;9.156;2022-07-10T12:06:25;30.50;81.50
790;DHT22;378;48.844;9.156;2022-07-10T12:08:53;29.30;83.50
790;DHT22;378;48.844;9.156;2022-07-10T12:11:22;28.50;83.30
790;DHT22;378;48.844;9.156;2022-07-10T12:13:51;27.60;84.50
790;DHT22;378;48.844;9.156;2022-07-10T12:16:20;27.50;85.70
790;DHT22;378;48.844;9.156;2022-07-10T12:18:48;28.90;83.80
790;DHT22;378;48.844;9.156;2022-07-10T12:21:15;31.00;80.50
790;DHT22;378;48.844;9.156;2022-07-10T12:23:44;32.00;77.90
790;DHT22;378;48.844;9.156;2022-07-10T12:26:12;32.30;75.90
790;DHT22;378;48.844;9.156;2022-07-10T12:28:55;32.10;77.00
790;DHT22;378;48.844;9.156;2022-07-10T12:31:27;33.30;76.70
790;DHT22;378;48.844;9.156;2022-07-10T12:33:56;33.90;72.70
790;DHT22;378;48.844;9.156;2022-07-10T12:36:49;34.00;71.10
790;DHT22;378;48.844;9.156;2022-07-10T12:39:18;34.10;69.70
790;DHT22;378;48.844;9.156;2022-07-10T12:41:58;34.80;68.20
790;DHT22;378;48.844;9.156;2022-07-10T12:44:38;35.10;66.10
790;DHT22;378;48.844;9.156;2022-07-10T12:47:06;34.10;65.60
790;DHT22;378;48.844;9.156;2022-07-10T12:49:50;33.70;67.10
790;DHT22;378;48.844;9.156;2022-07-10T12:52:25;34.00;66.40
790;DHT22;378;48.844;9.156;2022-07-10T12:55:09;34.10;64.10
790;DHT22;378;48.844;9.156;2022-07-10T12:57:47;34.00;66.00
790;DHT22;378;48.844;9.156;2022-07-10T13:00:18;34.50;64.70
790;DHT22;378;48.844;9.156;2022-07-10T13:02:46;35.50;63.80
790;DHT22;378;48.844;9.156;2022-07-10T13:05:29;36.50;61.90
790;DHT22;378;48.844;9.156;2022-07-10T13:08:08;37.00;59.30
790;DHT22;378;48.844;9.156;2022-07-10T13:10:37;36.00;59.20
790;DHT22;378;48.844;9.156;2022-07-10T13:13:05;35.10;59.50
790;DHT22;378;48.844;9.156;2022-07-10T13:15:35;35.00;60.10
790;DHT22;378;48.844;9.156;2022-07-10T13:18:06;34.40;60.80
790;DHT22;378;48.844;9.156;2022-07-10T13:20:33;33.80;62.10
790;DHT22;378;48.844;9.156;2022-07-10T13:23:00;33.80;61.90
790;DHT22;378;48.844;9.156;2022-07-10T13:25:28;34.80;61.30
790;DHT22;378;48.844;9.156;2022-07-10T13:27:55;34.40;60.50
790;DHT22;378;48.844;9.156;2022-07-10T13:30:22;34.40;61.90
790;DHT22;378;48.844;9.156;2022-07-10T13:32:50;34.30;60.60
790;DHT22;378;48.844;9.156;2022-07-10T13:35:17;34.60;61.70
790;DHT22;378;48.844;9.156;2022-07-10T13:37:45;35.00;60.80
790;DHT22;378;48.844;9.156;2022-07-10T13:40:12;35.20;58.90
790;DHT22;378;48.844;9.156;2022-07-10T13:42:39;35.40;58.70
790;DHT22;378;48.844;9.156;2022-07-10T13:45:07;35.50;58.70
790;DHT22;378;48.844;9.156;2022-07-10T13:47:35;33.90;58.90
790;DHT22;378;48.844;9.156;2022-07-10T13:50:04;31.20;62.80
790;DHT22;378;48.844;9.156;2022-07-10T13:52:31;29.60;65.60
790;DHT22;378;48.844;9.156;2022-07-10T13:54:59;30.00;66.70
790;DHT22;378;48.844;9.156;2022-07-10T13:57:26;30.80;65.50
790;DHT22;378;48.844;9.156;2022-07-10T13:59:54;31.90;63.60
790;DHT22;378;48.844;9.156;2022-07-10T14:02:21;30.90;64.60
790;DHT22;378;48.844;9.156;2022-07-10T14:04:49;31.80;65.40
790;DHT22;378;48.844;9.156;2022-07-10T14:07:17;33.10;63.50
790;DHT22;378;48.844;9.156;2022-07-10T14:09:44;33.40;63.30
790;DHT22;378;48.844;9.156;2022-07-10T14:12:12;33.10;61.80
790;DHT22;378;48.844;9.156;2022-07-10T14:14:39;31.50;62.30
790;DHT22;378;48.844;9.156;2022-07-10T14:17:06;30.90;65.30
790;DHT22;378;48.844;9.156;2022-07-10T14:19:33;30.20;64.70
790;DHT22;378;48.844;9.156;2022-07-10T14:22:00;28.40;67.20
790;DHT22;378;48.844;9.156;2022-07-10T14:24:29;27.10;70.40
790;DHT22;378;48.844;9.156;2022-07-10T14:26:56;26.30;72.60
790;DHT22;378;48.844;9.156;2022-07-10T14:29:23;27.40;72.60
790;DHT22;378;48.844;9.156;2022-07-10T14:31:50;29.50;70.00
790;DHT22;378;48.844;9.156;2022-07-10T14:34:17;31.60;66.10
790;DHT22;378;48.844;9.156;2022-07-10T14:36:45;32.40;63.00
790;DHT22;378;48.844;9.156;2022-07-10T14:39:12;31.40;63.90
790;DHT22;378;48.844;9.156;2022-07-10T14:41:40;31.40;63.90
790;DHT22;378;48.844;9.156;2022-07-10T14:44:07;32.70;63.90
790;DHT22;378;48.844;9.156;2022-07-10T14:46:34;33.40;61.50
790;DHT22;378;48.844;9.156;2022-07-10T14:49:01;33.70;60.80
790;DHT22;378;48.844;9.156;2022-07-10T14:51:29;34.20;60.00
790;DHT22;378;48.844;9.156;2022-07-10T14:53:56;34.40;59.20
790;DHT22;378;48.844;9.156;2022-07-10T14:56:23;33.70;59.00
790;DHT22;378;48.844;9.156;2022-07-10T14:58:52;33.30;60.00
790;DHT22;378;48.844;9.156;2022-07-10T15:01:19;33.90;59.50
790;DHT22;378;48.844;9.156;2022-07-10T15:03:46;34.60;58.90
790;DHT22;378;48.844;9.156;2022-07-10T15:06:13;33.70;58.00
790;DHT22;378;48.844;9.156;2022-07-10T15:08:40;33.70;59.40
790;DHT22;378;48.844;9.156;2022-07-10T15:11:07;34.30;57.70
790;DHT22;378;48.844;9.156;2022-07-10T15:13:34;33.70;58.60
790;DHT22;378;48.844;9.156;2022-07-10T15:16:03;34.00;59.10
790;DHT22;378;48.844;9.156;2022-07-10T15:18:30;33.40;58.00
790;DHT22;378;48.844;9.156;2022-07-10T15:20:57;33.60;58.70
790;DHT22;378;48.844;9.156;2022-07-10T15:23:27;34.20;58.30
790;DHT22;378;48.844;9.156;2022-07-10T15:25:54;34.80;58.00
790;DHT22;378;48.844;9.156;2022-07-10T15:28:21;35.40;57.00
790;DHT22;378;48.844;9.156;2022-07-10T15:30:48;35.70;56.40
790;DHT22;378;48.844;9.156;2022-07-10T15:33:17;35.40;56.50
790;DHT22;378;48.844;9.156;2022-07-10T15:35:44;35.10;57.20
790;DHT22;378;48.844;9.156;2022-07-10T15:38:11;34.90;56.80
790;DHT22;378;48.844;9.156;2022-07-10T15:40:38;35.30;56.90
790;DHT22;378;48.844;9.156;2022-07-10T15:43:05;35.70;56.00
790;DHT22;378;48.844;9.156;2022-07-10T15:45:33;33.80;56.70
790;DHT22;378;48.844;9.156;2022-07-10T15:48:00;32.80;58.40
790;DHT22;378;48.844;9.156;2022-07-10T15:50:29;33.10;58.10
790;DHT22;378;48.844;9.156;2022-07-10T15:52:56;32.50;58.90
790;DHT22;378;48.844;9.156;2022-07-10T15:55:23;33.50;58.80
790;DHT22;378;48.844;9.156;2022-07-10T15:57:50;34.30;57.00
790;DHT22;378;48.844;9.156;2022-07-10T16:00:17;32.90;58.10
790;DHT22;378;48.844;9.156;2022-07-10T16:02:44;31.60;59.00
790;DHT22;378;48.844;9.156;2022-07-10T16:05:11;29.90;61.00
790;DHT22;378;48.844;9.156;2022-07-10T16:07:40;28.40;63.20
790;DHT22;378;48.844;9.156;2022-07-10T16:10:08;27.10;65.50
790;DHT22;378;48.844;9.156;2022-07-10T16:12:35;26.50;68.50
790;DHT22;378;48.844;9.156;2022-07-10T16:15:02;27.50;67.70
790;DHT22;378;48.844;9.156;2022-07-10T16:17:30;29.40;64.70
790;DHT22;378;48.844;9.156;2022-07-10T16:19:57;31.10;62.50
790;DHT22;378;48.844;9.156;2022-07-10T16:22:24;33.00;59.50
790;DHT22;378;48.844;9.156;2022-07-10T16:24:52;34.10;57.80
790;DHT22;378;48.844;9.156;2022-07-10T16:27:36;33.70;57.80
790;DHT22;378;48.844;9.156;2022-07-10T16:30:04;33.30;58.10
790;DHT22;378;48.844;9.156;2022-07-10T16:32:31;32.40;58.40
790;DHT22;378;48.844;9.156;2022-07-10T16:34:58;30.70;59.90
790;DHT22;378;48.844;9.156;2022-07-10T16:37:27;28.80;62.90
790;DHT22;378;48.844;9.156;2022-07-10T16:39:55;27.30;66.50
790;DHT22;378;48.844;9.156;2022-07-10T16:42:22;26.10;68.20
790;DHT22;378;48.844;9.156;2022-07-10T16:44:49;25.20;70.60
790;DHT22;378;48.844;9.156;2022-07-10T16:47:16;24.40;71.90
790;DHT22;378;48.844;9.156;2022-07-10T16:49:45;23.80;73.30
790;DHT22;378;48.844;9.156;2022-07-10T16:52:12;23.40;74.80
790;DHT22;378;48.844;9.156;2022-07-10T16:54:39;23.10;75.50
790;DHT22;378;48.844;9.156;2022-07-10T16:57:07;23.00;75.40